createdAt,value
2019-03-28T00:01:55.761Z,74.74
2019-03-28T00:04:26.124Z,74.55
2019-03-28T00:06:56.488Z,74.19
2019-03-28T00:09:26.837Z,74.18
2019-03-28T00:11:57.192Z,75.26
2019-03-28T00:14:27.560Z,76.11
2019-03-28T00:16:57.909Z,75.37
2019-03-28T00:19:28.268Z,75.60
2019-03-28T00:21:58.617Z,76.54
2019-03-28T00:24:30.626Z,76.24
2019-03-28T00:27:01.097Z,76.66
2019-03-28T00:29:31.453Z,76.25
2019-03-28T00:32:01.803Z,76.77
2019-03-28T00:34:32.185Z,76.82
2019-03-28T00:37:02.554Z,76.63
2019-03-28T00:39:33.875Z,77.36
2019-03-28T00:42:04.230Z,75.34
2019-03-28T00:44:34.581Z,75.41
2019-03-28T00:47:04.982Z,75.87
2019-03-28T00:49:35.350Z,76.53
2019-03-28T00:52:05.712Z,75.56
2019-03-28T00:54:36.054Z,75.48
2019-03-28T00:57:06.401Z,75.95
2019-03-28T00:59:36.752Z,75.61
2019-03-28T01:02:07.101Z,75.71
2019-03-28T01:04:37.435Z,75.60
2019-03-28T01:07:07.801Z,75.85
2019-03-28T01:09:38.175Z,75.07
2019-03-28T01:12:08.535Z,75.97
2019-03-28T01:14:38.911Z,76.05
2019-03-28T01:17:09.293Z,76.06
2019-03-28T01:19:39.629Z,75.77
2019-03-28T01:22:10.033Z,75.37
2019-03-28T01:24:40.358Z,75.37
2019-03-28T01:27:10.703Z,75.24
2019-03-28T01:29:41.053Z,74.93
2019-03-28T01:32:11.428Z,75.75
2019-03-28T01:34:41.785Z,75.35
2019-03-28T01:37:12.177Z,74.98
2019-03-28T01:39:42.603Z,75.37
2019-03-28T01:42:12.967Z,75.00
2019-03-28T01:44:43.337Z,75.94
2019-03-28T01:47:13.664Z,76.23
2019-03-28T01:49:44.030Z,75.75
2019-03-28T01:52:14.386Z,74.75
2019-03-28T01:54:44.738Z,74.50
2019-03-28T01:57:15.117Z,74.94
2019-03-28T01:59:46.318Z,74.88
2019-03-28T02:02:16.781Z,75.65
2019-03-28T02:04:47.141Z,75.32
2019-03-28T02:07:17.515Z,75.48
2019-03-28T02:09:47.877Z,75.19
2019-03-28T02:12:18.227Z,75.25
2019-03-28T02:14:48.579Z,75.62
2019-03-28T02:17:18.938Z,74.76
2019-03-28T02:19:49.303Z,74.60
2019-03-28T02:22:19.680Z,75.23
2019-03-28T02:24:50.089Z,75.04
2019-03-28T02:27:24.274Z,74.77
2019-03-28T02:29:52.497Z,75.58
2019-03-28T02:32:22.944Z,74.91
2019-03-28T02:34:53.276Z,75.09
2019-03-28T02:37:23.631Z,75.04
2019-03-28T02:39:53.982Z,75.76
2019-03-28T02:42:24.348Z,76.87
2019-03-28T02:44:54.701Z,76.83
2019-03-28T02:47:25.051Z,77.68
2019-03-28T02:49:55.411Z,78.06
2019-03-28T02:52:25.780Z,78.52
2019-03-28T02:54:56.179Z,77.67
2019-03-28T02:57:40.161Z,78.60
2019-03-28T02:59:58.549Z,78.64
2019-03-28T03:02:28.913Z,77.89
2019-03-28T03:04:59.274Z,77.35
2019-03-28T03:07:29.798Z,77.45
2019-03-28T03:10:00.418Z,77.37
2019-03-28T03:12:32.141Z,76.97
2019-03-28T03:15:03.593Z,75.93
2019-03-28T03:17:34.275Z,75.96
2019-03-28T03:20:06.148Z,76.69
2019-03-28T03:22:36.522Z,76.47
2019-03-28T03:25:08.004Z,77.01
2019-03-28T03:27:38.404Z,75.30
2019-03-28T03:30:08.782Z,75.81
2019-03-28T03:32:39.149Z,76.52
2019-03-28T03:35:09.476Z,75.27
2019-03-28T03:37:40.804Z,75.68
2019-03-28T03:40:11.207Z,75.64
2019-03-28T03:42:41.581Z,75.13
2019-03-28T03:45:11.914Z,74.64
2019-03-28T03:47:42.302Z,75.16
2019-03-28T03:50:15.926Z,74.16
2019-03-28T03:52:46.279Z,74.54
2019-03-28T03:55:16.629Z,74.62
2019-03-28T03:57:47.007Z,75.20
2019-03-28T04:00:20.617Z,74.81
2019-03-28T04:02:51.059Z,74.94
2019-03-28T04:05:21.525Z,76.29
2019-03-28T04:07:52.123Z,76.39
2019-03-28T04:10:22.455Z,76.31
2019-03-28T04:12:53.009Z,75.68
2019-03-28T04:15:23.500Z,76.00
2019-03-28T04:17:53.924Z,74.29
2019-03-28T04:20:25.403Z,74.66
2019-03-28T04:22:55.918Z,74.73
2019-03-28T04:25:26.324Z,73.41
2019-03-28T04:27:56.810Z,73.62
2019-03-28T04:30:27.326Z,72.70
2019-03-28T04:32:57.827Z,72.81
2019-03-28T04:35:28.277Z,72.70
2019-03-28T04:37:58.911Z,71.44
2019-03-28T04:40:29.404Z,71.93
2019-03-28T04:42:59.825Z,70.38
2019-03-28T04:45:30.224Z,70.95
2019-03-28T04:48:01.515Z,70.08
2019-03-28T04:50:33.012Z,70.79
2019-03-28T04:53:03.423Z,70.88
2019-03-28T04:55:33.842Z,71.34
2019-03-28T04:58:04.256Z,69.69
2019-03-28T05:00:34.678Z,69.12
2019-03-28T05:03:05.106Z,70.71
2019-03-28T05:05:35.521Z,71.19
2019-03-28T05:08:05.955Z,70.79
2019-03-28T05:10:36.359Z,70.14
2019-03-28T05:13:06.785Z,70.58
2019-03-28T05:15:37.203Z,71.38
2019-03-28T05:18:07.716Z,70.99
2019-03-28T05:20:38.141Z,70.65
2019-03-28T05:23:08.735Z,70.83
2019-03-28T05:25:39.153Z,70.56
2019-03-28T05:28:09.584Z,70.83
2019-03-28T05:30:40.216Z,71.05
2019-03-28T05:33:11.215Z,70.68
2019-03-28T05:35:41.643Z,70.33
2019-03-28T05:38:12.170Z,69.89
2019-03-28T05:40:42.807Z,69.86
2019-03-28T05:43:13.283Z,68.79
2019-03-28T05:45:46.286Z,69.85
2019-03-28T05:48:16.097Z,70.13
2019-03-28T05:50:46.614Z,70.59
2019-03-28T05:53:16.976Z,70.19
2019-03-28T05:55:48.401Z,70.70
2019-03-28T05:58:18.786Z,70.46
2019-03-28T06:00:51.283Z,70.79
2019-03-28T06:03:23.278Z,71.07
2019-03-28T06:05:53.771Z,71.90
2019-03-28T06:08:24.219Z,74.88
2019-03-28T06:10:54.698Z,75.46
2019-03-28T06:13:25.068Z,76.19
2019-03-28T06:15:55.527Z,76.12
2019-03-28T06:18:26.288Z,76.46
2019-03-28T06:20:59.504Z,75.28
2019-03-28T06:23:29.004Z,75.58
2019-03-28T06:25:59.637Z,76.27
2019-03-28T06:28:30.035Z,75.99
2019-03-28T06:31:00.388Z,76.28
2019-03-28T06:33:31.232Z,75.73
2019-03-28T06:36:02.357Z,77.10
2019-03-28T06:38:33.083Z,75.75
2019-03-28T06:41:03.888Z,75.88
2019-03-28T06:43:34.379Z,73.98
2019-03-28T06:46:05.991Z,72.91
2019-03-28T06:48:36.419Z,70.90
2019-03-28T06:51:06.758Z,69.51
2019-03-28T06:53:37.127Z,71.15
2019-03-28T06:56:07.502Z,72.32
2019-03-28T06:58:37.881Z,72.19
2019-03-28T07:01:08.334Z,73.83
2019-03-28T07:03:38.906Z,73.69
2019-03-28T07:06:10.252Z,73.99
2019-03-28T07:08:40.604Z,74.06
2019-03-28T07:11:10.971Z,73.41
2019-03-28T07:13:41.341Z,73.24
2019-03-28T07:16:11.720Z,73.87
2019-03-28T07:18:42.108Z,73.03
2019-03-28T07:21:12.919Z,72.87
2019-03-28T07:23:43.534Z,72.45
2019-03-28T07:26:13.920Z,72.14
2019-03-28T07:28:44.286Z,70.90
2019-03-28T07:31:14.675Z,71.50
2019-03-28T07:33:45.104Z,70.62
2019-03-28T07:36:15.527Z,69.40
2019-03-28T07:38:45.901Z,70.18
2019-03-28T07:41:16.699Z,69.81
2019-03-28T07:43:48.264Z,69.56
2019-03-28T07:46:18.639Z,69.42
2019-03-28T07:48:49.042Z,68.62
2019-03-28T07:51:19.414Z,68.29
2019-03-28T07:53:49.795Z,69.12
2019-03-28T07:56:20.161Z,68.42
2019-03-28T07:58:50.544Z,68.64
2019-03-28T08:01:24.098Z,67.52
2019-03-28T08:03:55.958Z,68.00
2019-03-28T08:06:26.445Z,67.04
2019-03-28T08:08:56.862Z,65.28
2019-03-28T08:11:27.426Z,64.45
2019-03-28T08:13:58.807Z,64.36
2019-03-28T08:16:29.177Z,62.81
2019-03-28T08:18:59.542Z,61.84
2019-03-28T08:21:30.200Z,61.20
2019-03-28T08:24:00.577Z,60.62
2019-03-28T08:26:30.928Z,59.77
2019-03-28T08:29:01.327Z,60.16
2019-03-28T08:31:31.683Z,57.29
2019-03-28T08:34:02.159Z,55.71
2019-03-28T08:36:32.534Z,56.67
2019-03-28T08:39:03.183Z,55.48
2019-03-28T08:41:36.173Z,54.50
2019-03-28T08:44:07.410Z,54.46
2019-03-28T08:46:39.226Z,55.40
2019-03-28T08:49:09.602Z,56.54
2019-03-28T08:51:40.042Z,57.05
2019-03-28T08:54:10.410Z,56.94
2019-03-28T08:56:40.754Z,56.24
2019-03-28T08:59:11.329Z,57.54
2019-03-28T09:01:41.691Z,56.94
2019-03-28T09:04:12.035Z,57.32
2019-03-28T09:06:42.386Z,56.60
2019-03-28T09:09:12.738Z,55.83
2019-03-28T09:11:43.416Z,55.44
2019-03-28T09:14:13.810Z,52.68
2019-03-28T09:16:44.199Z,51.66
2019-03-28T09:19:14.571Z,53.03
2019-03-28T09:21:44.943Z,52.19
2019-03-28T09:24:15.293Z,53.39
2019-03-28T09:26:45.671Z,52.19
2019-03-28T09:29:16.015Z,51.38
2019-03-28T09:31:46.372Z,50.39
2019-03-28T09:34:16.765Z,51.53
2019-03-28T09:36:47.448Z,51.97
2019-03-28T09:39:17.807Z,47.79
2019-03-28T09:41:48.233Z,47.69
2019-03-28T09:44:18.630Z,46.89
2019-03-28T09:46:49.028Z,42.15
2019-03-28T09:49:19.384Z,43.94
2019-03-28T09:51:49.758Z,45.11
2019-03-28T09:54:20.154Z,46.01
2019-03-28T09:56:50.544Z,47.24
2019-03-28T09:59:20.920Z,48.03
2019-03-28T10:01:51.305Z,49.48
2019-03-28T10:04:21.719Z,48.69
2019-03-28T10:06:52.095Z,48.98
2019-03-28T10:09:22.673Z,45.96
2019-03-28T10:11:53.020Z,45.94
2019-03-28T10:14:23.392Z,45.84
2019-03-28T10:16:53.763Z,46.23
2019-03-28T10:19:24.184Z,46.37
2019-03-28T10:21:54.537Z,46.42
2019-03-28T10:24:24.889Z,46.64
2019-03-28T10:26:55.236Z,46.18
2019-03-28T10:29:25.600Z,45.88
2019-03-28T10:31:55.937Z,45.47
2019-03-28T10:34:26.292Z,44.27
2019-03-28T10:36:56.640Z,45.42
2019-03-28T10:39:27.019Z,45.45
2019-03-28T10:41:57.387Z,45.39
2019-03-28T10:44:27.789Z,44.44
2019-03-28T10:46:58.169Z,45.23
2019-03-28T10:49:28.595Z,46.85
2019-03-28T10:51:58.995Z,47.45
2019-03-28T10:54:29.354Z,46.26
2019-03-28T10:57:12.984Z,46.87
2019-03-28T10:59:31.836Z,47.38
2019-03-28T11:02:02.199Z,46.36
2019-03-28T11:04:32.565Z,47.67
2019-03-28T11:07:03.890Z,49.01
2019-03-28T11:09:34.664Z,50.70
2019-03-28T11:12:05.205Z,49.48
2019-03-28T11:14:35.563Z,49.87
2019-03-28T11:17:06.154Z,49.47
2019-03-28T11:19:36.552Z,47.66
2019-03-28T11:22:08.010Z,48.32
2019-03-28T11:24:38.353Z,48.25
2019-03-28T11:27:08.732Z,48.97
2019-03-28T11:29:39.129Z,50.10
2019-03-28T11:32:09.512Z,48.83
2019-03-28T11:34:40.825Z,48.25
2019-03-28T11:37:24.931Z,50.81
2019-03-28T11:39:43.374Z,49.87
2019-03-28T11:42:13.801Z,49.95
2019-03-28T11:44:44.175Z,49.29
2019-03-28T11:47:14.533Z,49.74
2019-03-28T11:49:45.001Z,48.14
2019-03-28T11:52:15.405Z,46.66
2019-03-28T11:54:45.753Z,47.31
2019-03-28T11:57:16.400Z,48.38
2019-03-28T11:59:46.761Z,47.79
2019-03-28T12:02:20.298Z,48.51
2019-03-28T12:04:49.201Z,48.05
2019-03-28T12:07:19.559Z,48.23
2019-03-28T12:09:49.954Z,47.13
2019-03-28T12:12:20.301Z,47.32
2019-03-28T12:14:50.756Z,45.76
2019-03-28T12:17:21.335Z,46.77
2019-03-28T12:19:51.687Z,47.36
2019-03-28T12:22:23.121Z,47.22
2019-03-28T12:24:53.486Z,46.64
2019-03-28T12:27:23.927Z,46.62
2019-03-28T12:29:54.286Z,46.66
2019-03-28T12:32:24.623Z,47.15
2019-03-28T12:34:54.989Z,46.73
2019-03-28T12:37:26.369Z,48.29
2019-03-28T12:39:59.873Z,48.30
2019-03-28T12:42:28.802Z,49.39
2019-03-28T12:45:00.553Z,48.70
2019-03-28T12:47:41.724Z,50.16
2019-03-28T12:50:06.000Z,50.57
2019-03-28T12:52:37.294Z,49.79
2019-03-28T12:55:07.742Z,50.73
2019-03-28T12:57:38.454Z,50.70
2019-03-28T13:00:10.158Z,49.66
2019-03-28T13:02:40.524Z,49.98
2019-03-28T13:05:10.882Z,49.63
2019-03-28T13:07:41.257Z,50.00
2019-03-28T13:10:11.725Z,49.83
2019-03-28T13:12:42.098Z,48.26
2019-03-28T13:15:13.025Z,48.45
2019-03-28T13:17:43.987Z,47.60
2019-03-28T13:20:14.342Z,47.70
2019-03-28T13:22:44.747Z,48.30
2019-03-28T13:25:15.114Z,47.89
2019-03-28T13:27:46.007Z,48.70
2019-03-28T13:30:16.486Z,48.39
2019-03-28T13:32:46.858Z,48.09
2019-03-28T13:35:17.202Z,48.66
2019-03-28T13:37:47.537Z,48.57
2019-03-28T13:40:17.884Z,49.43
2019-03-28T13:42:48.272Z,48.82
2019-03-28T13:45:20.340Z,47.84
2019-03-28T13:47:54.170Z,47.85
2019-03-28T13:50:22.815Z,47.11
2019-03-28T13:52:53.572Z,46.90
2019-03-28T13:55:24.239Z,47.55
2019-03-28T13:57:54.603Z,46.79
2019-03-28T14:00:30.030Z,47.99
2019-03-28T14:03:00.374Z,47.28
2019-03-28T14:05:30.772Z,47.77
2019-03-28T14:08:01.202Z,46.41
2019-03-28T14:10:31.551Z,47.08
2019-03-28T14:13:01.904Z,46.38
2019-03-28T14:15:32.276Z,46.39
2019-03-28T14:18:02.635Z,45.57
2019-03-28T14:20:34.286Z,44.08
2019-03-28T14:23:04.662Z,44.37
2019-03-28T14:25:35.008Z,45.41
2019-03-28T14:28:05.362Z,45.93
2019-03-28T14:30:35.735Z,46.09
2019-03-28T14:33:11.663Z,46.77
2019-03-28T14:35:39.150Z,47.12
2019-03-28T14:38:09.756Z,46.83
2019-03-28T14:40:40.118Z,47.14
2019-03-28T14:43:11.584Z,48.10
2019-03-28T14:45:41.957Z,47.12
2019-03-28T14:48:12.345Z,48.17
2019-03-28T14:50:42.815Z,48.44
2019-03-28T14:53:13.204Z,48.59
2019-03-28T14:55:43.560Z,48.31
2019-03-28T14:58:13.944Z,48.89
2019-03-28T15:00:51.636Z,47.90
2019-03-28T15:03:26.952Z,49.56
2019-03-28T15:05:54.137Z,50.93
2019-03-28T15:08:24.502Z,50.89
2019-03-28T15:10:54.931Z,50.49
2019-03-28T15:13:26.229Z,50.14
2019-03-28T15:15:56.801Z,49.46
2019-03-28T15:18:27.167Z,49.66
2019-03-28T15:20:57.598Z,49.68
2019-03-28T15:23:28.143Z,49.02
2019-03-28T15:25:58.624Z,49.83
2019-03-28T15:28:30.065Z,48.66
2019-03-28T15:31:00.541Z,49.07
2019-03-28T15:33:39.526Z,49.36
2019-03-28T15:36:03.186Z,48.01
2019-03-28T15:38:34.073Z,48.49
2019-03-28T15:41:04.456Z,49.33
2019-03-28T15:43:34.824Z,49.35
2019-03-28T15:46:06.681Z,49.83
2019-03-28T15:48:37.928Z,49.35
2019-03-28T15:51:08.697Z,49.70
2019-03-28T15:53:39.487Z,49.79
2019-03-28T15:56:09.910Z,50.14
2019-03-28T15:58:40.753Z,50.07
2019-03-28T16:01:11.245Z,50.03
2019-03-28T16:03:52.350Z,48.95
2019-03-28T16:06:14.624Z,48.91
2019-03-28T16:08:45.436Z,48.82
2019-03-28T16:11:15.893Z,49.37
2019-03-28T16:13:46.371Z,49.70
2019-03-28T16:16:16.743Z,49.53
2019-03-28T16:18:47.150Z,49.86
2019-03-28T16:21:17.676Z,49.39
2019-03-28T16:23:48.179Z,49.81
2019-03-28T16:26:18.606Z,49.51
2019-03-28T16:28:48.971Z,49.09
2019-03-28T16:31:19.358Z,49.31
2019-03-28T16:33:49.976Z,49.41
2019-03-28T16:36:20.491Z,49.12
2019-03-28T16:38:50.944Z,49.60
2019-03-28T16:41:22.371Z,49.74
2019-03-28T16:43:52.785Z,49.90
2019-03-28T16:46:23.161Z,50.05
2019-03-28T16:48:53.578Z,50.36
2019-03-28T16:51:23.978Z,50.83
2019-03-28T16:53:54.347Z,50.79
2019-03-28T16:56:24.752Z,51.11
2019-03-28T16:58:55.502Z,51.93
2019-03-28T17:01:26.405Z,52.65
2019-03-28T17:03:56.903Z,53.23
2019-03-28T17:06:27.587Z,53.58
2019-03-28T17:08:58.291Z,53.60
2019-03-28T17:11:30.560Z,54.41
2019-03-28T17:14:00.938Z,53.84
2019-03-28T17:16:31.466Z,53.55
2019-03-28T17:19:01.820Z,53.93
2019-03-28T17:21:32.972Z,53.96
2019-03-28T17:24:04.278Z,53.68
2019-03-28T17:26:34.687Z,53.60
2019-03-28T17:29:05.120Z,53.45
2019-03-28T17:31:36.164Z,54.70
2019-03-28T17:34:06.529Z,55.78
2019-03-28T17:36:36.925Z,54.29
2019-03-28T17:39:07.426Z,54.70
2019-03-28T17:41:37.939Z,54.19
2019-03-28T17:44:08.492Z,53.55
2019-03-28T17:46:39.208Z,54.31
2019-03-28T17:49:09.936Z,54.35
2019-03-28T17:51:40.677Z,54.42
2019-03-28T17:54:11.845Z,54.25
2019-03-28T17:56:42.599Z,54.02
2019-03-28T17:59:12.983Z,54.20
2019-03-28T18:01:43.371Z,54.66
2019-03-28T18:04:22.662Z,55.87
2019-03-28T18:06:46.395Z,55.96
2019-03-28T18:09:16.818Z,56.52
2019-03-28T18:11:48.859Z,56.40
2019-03-28T18:14:21.535Z,56.79
2019-03-28T18:16:52.187Z,56.05
2019-03-28T18:19:23.092Z,56.44
2019-03-28T18:22:03.227Z,56.59
2019-03-28T18:24:26.109Z,56.81
2019-03-28T18:26:56.832Z,56.36
2019-03-28T18:29:27.921Z,56.01
2019-03-28T18:32:00.299Z,56.45
2019-03-28T18:34:31.431Z,56.90
2019-03-28T18:37:02.414Z,56.76
2019-03-28T18:39:33.469Z,56.70
2019-03-28T18:42:05.129Z,56.03
2019-03-28T18:44:36.747Z,56.54
2019-03-28T18:47:08.203Z,57.26
2019-03-28T18:49:38.665Z,58.03
2019-03-28T18:52:09.366Z,58.64
2019-03-28T18:54:39.784Z,58.92
2019-03-28T18:57:10.222Z,58.23
2019-03-28T18:59:40.687Z,58.11
2019-03-28T19:02:11.125Z,58.37
2019-03-28T19:04:41.518Z,58.17
2019-03-28T19:07:11.908Z,58.13
2019-03-28T19:09:42.354Z,57.99
2019-03-28T19:12:12.858Z,57.89
2019-03-28T19:14:46.130Z,57.81
2019-03-28T19:17:16.226Z,58.03
2019-03-28T19:19:47.236Z,57.73
2019-03-28T19:22:18.167Z,58.33
2019-03-28T19:24:49.344Z,58.10
2019-03-28T19:27:21.210Z,58.33
2019-03-28T19:29:53.432Z,57.96
2019-03-28T19:32:23.774Z,57.88
2019-03-28T19:34:54.225Z,57.89
2019-03-28T19:37:25.014Z,57.71
2019-03-28T19:39:56.533Z,57.88
2019-03-28T19:42:27.743Z,57.23
2019-03-28T19:44:59.005Z,56.91
2019-03-28T19:47:30.060Z,57.28
2019-03-28T19:50:00.454Z,57.65
2019-03-28T19:52:31.080Z,56.91
2019-03-28T19:55:02.279Z,57.65
2019-03-28T19:57:33.126Z,57.69
2019-03-28T20:00:07.305Z,57.52
2019-03-28T20:02:38.287Z,57.02
2019-03-28T20:05:10.399Z,57.05
2019-03-28T20:07:40.751Z,57.18
2019-03-28T20:10:16.578Z,56.89
2019-03-28T20:12:43.264Z,56.84
2019-03-28T20:15:15.864Z,57.96
2019-03-28T20:17:47.946Z,57.84
2019-03-28T20:20:18.516Z,58.20
2019-03-28T20:22:49.252Z,58.33
2019-03-28T20:25:20.154Z,57.67
2019-03-28T20:27:50.989Z,57.70
2019-03-28T20:30:24.396Z,57.52
2019-03-28T20:32:55.593Z,57.47
2019-03-28T20:35:26.539Z,57.66
2019-03-28T20:37:57.381Z,57.27
2019-03-28T20:40:29.454Z,57.67
2019-03-28T20:43:00.793Z,57.48
2019-03-28T20:45:32.020Z,58.23
2019-03-28T20:48:02.928Z,57.79
2019-03-28T20:50:33.437Z,57.72
2019-03-28T20:53:04.421Z,57.67
2019-03-28T20:55:36.866Z,57.65
2019-03-28T20:58:07.764Z,57.40
2019-03-28T21:00:43.625Z,57.44
2019-03-28T21:03:15.413Z,57.08
2019-03-28T21:05:45.996Z,57.40
2019-03-28T21:08:17.027Z,57.23
2019-03-28T21:10:47.849Z,57.99
2019-03-28T21:13:18.222Z,58.14
2019-03-28T21:15:49.076Z,57.78
2019-03-28T21:18:19.533Z,58.42
2019-03-28T21:20:50.084Z,58.37
2019-03-28T21:23:20.796Z,58.16
2019-03-28T21:25:51.174Z,57.62
2019-03-28T21:28:21.555Z,57.44
2019-03-28T21:30:51.937Z,58.00
2019-03-28T21:33:23.483Z,57.72
2019-03-28T21:35:54.726Z,57.54
2019-03-28T21:38:25.123Z,57.92
2019-03-28T21:40:55.518Z,57.20
2019-03-28T21:43:27.152Z,57.31
2019-03-28T21:45:57.944Z,57.76
2019-03-28T21:48:28.382Z,57.82
2019-03-28T21:50:58.753Z,57.54
2019-03-28T21:53:29.129Z,57.33
2019-03-28T21:55:59.506Z,56.90
2019-03-28T21:58:30.114Z,57.12
2019-03-28T22:01:01.184Z,56.90
2019-03-28T22:03:31.567Z,57.11
2019-03-28T22:06:03.797Z,57.38
2019-03-28T22:08:34.479Z,56.55
2019-03-28T22:11:04.896Z,56.43
2019-03-28T22:13:35.301Z,56.51
2019-03-28T22:16:07.631Z,56.26
2019-03-28T22:18:37.893Z,56.45
2019-03-28T22:21:08.366Z,56.41
2019-03-28T22:23:38.683Z,56.24
2019-03-28T22:26:09.085Z,56.79
2019-03-28T22:28:39.919Z,56.92
2019-03-28T22:31:10.308Z,57.30
2019-03-28T22:33:41.808Z,57.74
2019-03-28T22:36:12.298Z,57.64
2019-03-28T22:38:42.815Z,57.67
2019-03-28T22:41:13.189Z,57.60
2019-03-28T22:43:43.567Z,58.57
2019-03-28T22:48:37.184Z,58.26
2019-03-28T22:51:10.478Z,58.28
2019-03-28T22:53:40.860Z,59.12
2019-03-28T22:56:11.238Z,58.73
2019-03-28T22:58:41.614Z,59.83
2019-03-28T23:01:11.980Z,60.35
2019-03-28T23:03:42.341Z,60.42
2019-03-28T23:06:12.734Z,60.69
2019-03-28T23:08:43.127Z,60.23
2019-03-28T23:11:13.920Z,60.98
2019-03-28T23:13:44.556Z,60.24
2019-03-28T23:16:14.927Z,60.50
2019-03-28T23:18:45.480Z,61.21
2019-03-28T23:21:16.174Z,61.53
2019-03-28T23:23:47.087Z,62.08
2019-03-28T23:26:17.449Z,62.20
2019-03-28T23:28:47.885Z,62.69
2019-03-28T23:31:19.020Z,62.79
2019-03-28T23:33:50.459Z,62.27
2019-03-28T23:36:20.846Z,62.11
2019-03-28T23:38:51.249Z,63.65
2019-03-28T23:41:21.860Z,64.34
2019-03-28T23:43:52.271Z,66.01
2019-03-28T23:46:22.636Z,66.31
2019-03-28T23:48:53.009Z,66.63
2019-03-28T23:51:23.442Z,68.14
2019-03-28T23:53:54.619Z,67.63
2019-03-28T23:56:25.004Z,67.39
2019-03-28T23:58:55.458Z,67.06
